Time;durP1;ratioP1;P1;durP2;ratioP2;P2;SDS_P1;SDS_P2;PMS_P1;PMS_P2;Temp;Humidity;BMP_temperature;BMP_pressure;BME280_temperature;BME280_humidity;BME280_pressure;Samples;Min_cycle;Max_cycle;Signal;HPM_P1;HPM_P2
2024/01/02 00:01:25;;;;;;;32.58;29.38;;;13.30;99.90;;;;;;5007291;29;20038;-76
2024/01/02 00:03:56;;;;;;;31.60;28.55;;;13.40;99.90;;;;;;5007240;29;20103;-75
2024/01/02 00:06:27;;;;;;;34.22;30.63;;;13.10;99.90;;;;;;5008782;29;20108;-76
2024/01/02 00:08:58;;;;;;;32.42;29.25;;;13.40;99.90;;;;;;5008846;29;20665;-75
2024/01/02 00:11:29;;;;;;;32.50;29.70;;;13.40;99.90;;;;;;5009456;29;20096;-75
2024/01/02 00:14:00;;;;;;;33.55;30.00;;;13.40;99.90;;;;;;5009260;29;20034;-76
2024/01/02 00:16:31;;;;;;;33.47;30.27;;;13.30;99.90;;;;;;5009057;29;20069;-76
2024/01/02 00:19:02;;;;;;;30.63;27.17;;;13.40;99.90;;;;;;5007835;29;20383;-75
2024/01/02 00:21:33;;;;;;;33.30;30.10;;;13.40;99.90;;;;;;5008983;29;20041;-76
2024/01/02 00:24:04;;;;;;;29.42;26.77;;;13.40;99.90;;;;;;5007645;29;20041;-76
2024/01/02 00:26:35;;;;;;;32.20;29.05;;;13.30;99.90;;;;;;5008731;29;20113;-76
2024/01/02 00:29:06;;;;;;;34.70;31.50;;;13.30;99.90;;;;;;5008744;29;20109;-76
2024/01/02 00:31:37;;;;;;;30.73;27.73;;;13.50;99.90;;;;;;5008864;29;20030;-75
2024/01/02 00:34:08;;;;;;;33.20;29.67;;;13.30;99.90;;;;;;5007536;29;20403;-75
2024/01/02 00:36:39;;;;;;;28.75;26.02;;;13.30;99.90;;;;;;5007399;29;20046;-75
2024/01/02 00:39:10;;;;;;;32.88;29.35;;;13.40;99.90;;;;;;5008332;29;20427;-76
2024/01/02 00:41:42;;;;;;;29.45;26.45;;;13.40;99.90;;;;;;5007118;29;20063;-77
2024/01/02 00:44:13;;;;;;;31.85;27.98;;;13.30;99.90;;;;;;5007022;29;20684;-77
2024/01/02 00:46:43;;;;;;;29.08;26.40;;;13.40;99.90;;;;;;5002558;29;20034;-76
2024/01/02 00:49:14;;;;;;;31.52;28.33;;;13.30;99.90;;;;;;4988386;29;20042;-76
2024/01/02 00:51:45;;;;;;;30.38;27.50;;;13.30;99.90;;;;;;4987285;29;20022;-76
2024/01/02 00:54:16;;;;;;;34.65;31.23;;;13.20;99.90;;;;;;4987137;29;20061;-76
2024/01/02 00:56:47;;;;;;;33.70;30.38;;;13.20;99.90;;;;;;4988384;29;20121;-76
2024/01/02 00:59:18;;;;;;;37.00;33.33;;;13.10;99.90;;;;;;4987272;29;20040;-77
2024/01/02 01:01:49;;;;;;;36.47;32.85;;;13.10;99.90;;;;;;4988595;29;20095;-76
2024/01/02 01:04:20;;;;;;;36.38;32.67;;;13.00;99.90;;;;;;4988943;29;20480;-76
2024/01/02 01:06:51;;;;;;;34.47;30.95;;;12.90;99.90;;;;;;4989339;29;20397;-76
2024/01/02 01:09:22;;;;;;;36.00;32.42;;;13.00;99.90;;;;;;4989112;29;20049;-76
2024/01/02 01:11:53;;;;;;;34.78;31.23;;;13.10;99.90;;;;;;4989348;29;20030;-76
2024/01/02 01:14:24;;;;;;;36.50;32.97;;;13.10;99.90;;;;;;4989641;29;20035;-76
2024/01/02 01:16:55;;;;;;;36.83;33.28;;;13.10;99.90;;;;;;4989044;29;20064;-75
2024/01/02 01:19:26;;;;;;;36.85;33.25;;;12.90;99.90;;;;;;4989770;29;20030;-75
2024/01/02 01:21:57;;;;;;;38.95;35.22;;;12.80;99.90;;;;;;4989643;29;20038;-76
2024/01/02 01:24:28;;;;;;;43.47;39.00;;;12.90;99.90;;;;;;4989361;29;20038;-76
2024/01/02 01:26:59;;;;;;;42.20;37.80;;;12.80;99.90;;;;;;4987603;29;20483;-76
2024/01/02 01:29:30;;;;;;;42.25;37.72;;;12.70;99.90;;;;;;4989216;29;20041;-76
2024/01/02 01:32:01;;;;;;;42.95;38.72;;;12.50;99.90;;;;;;4989043;29;20025;-75
2024/01/02 01:34:32;;;;;;;43.70;39.20;;;12.40;99.90;;;;;;4988898;29;20078;-75
2024/01/02 01:37:03;;;;;;;42.25;37.75;;;12.50;99.90;;;;;;4987501;29;20038;-76
2024/01/02 01:39:35;;;;;;;43.97;39.33;;;12.50;99.90;;;;;;4988210;29;20059;-75
2024/01/02 01:42:06;;;;;;;46.58;40.63;;;12.40;99.90;;;;;;4988498;29;20038;-76
2024/01/02 01:44:36;;;;;;;43.03;38.63;;;12.60;99.90;;;;;;4988552;29;20029;-76
2024/01/02 01:47:07;;;;;;;45.83;40.83;;;12.40;99.90;;;;;;4987746;29;20022;-75
2024/01/02 01:49:39;;;;;;;43.30;38.65;;;12.40;99.90;;;;;;4987495;29;20480;-76
2024/01/02 01:52:10;;;;;;;44.78;39.55;;;12.40;99.90;;;;;;4988159;29;20037;-76
2024/01/02 01:54:41;;;;;;;45.30;40.63;;;12.50;99.90;;;;;;4987893;29;20031;-76
2024/01/02 01:57:13;;;;;;;43.75;39.03;;;12.40;99.90;;;;;;4987514;29;20068;-76
2024/01/02 01:59:45;;;;;;;42.15;37.55;;;12.30;99.90;;;;;;4987522;29;20467;-76
2024/01/02 02:02:16;;;;;;;39.90;35.90;;;12.40;99.90;;;;;;4987301;29;20037;-76
2024/01/02 02:04:50;;;;;;;39.38;35.28;;;12.40;99.90;;;;;;4988597;29;20034;-76
2024/01/02 02:07:21;;;;;;;37.33;32.97;;;12.50;99.90;;;;;;4988232;29;20030;-76
2024/01/02 02:09:51;;;;;;;37.35;33.42;;;12.50;99.90;;;;;;4988151;29;20043;-75
2024/01/02 02:12:23;;;;;;;37.50;33.72;;;12.40;99.90;;;;;;4988386;29;20034;-77
2024/01/02 02:14:54;;;;;;;36.97;33.20;;;12.50;99.90;;;;;;4988345;29;20399;-76
2024/01/02 02:17:28;;;;;;;37.90;33.97;;;12.40;99.90;;;;;;4986835;29;20082;-76
2024/01/02 02:19:59;;;;;;;37.88;34.08;;;12.50;99.90;;;;;;4988199;29;20030;-77
2024/01/02 02:22:35;;;;;;;33.78;30.48;;;12.60;99.90;;;;;;4988425;29;20030;-76
2024/01/02 02:25:07;;;;;;;34.00;30.73;;;12.60;99.90;;;;;;4988534;29;20471;-77
2024/01/02 02:27:38;;;;;;;32.72;29.58;;;12.50;99.90;;;;;;4988609;29;20033;-76
2024/01/02 02:30:10;;;;;;;34.78;30.98;;;12.70;99.90;;;;;;4988846;29;20038;-77
2024/01/02 02:32:41;;;;;;;33.85;30.25;;;12.70;99.90;;;;;;4988609;29;20031;-76
2024/01/02 02:35:11;;;;;;;33.55;29.95;;;12.60;99.90;;;;;;4987387;29;20440;-77
2024/01/02 02:37:42;;;;;;;32.05;28.70;;;12.60;99.90;;;;;;4987624;29;20095;-77
2024/01/02 02:40:13;;;;;;;31.77;28.48;;;12.60;99.90;;;;;;4987325;29;20058;-76
2024/01/02 02:42:44;;;;;;;32.00;28.80;;;12.60;99.90;;;;;;4986896;29;20030;-76
2024/01/02 02:45:15;;;;;;;32.72;29.48;;;12.60;99.90;;;;;;4986072;29;20456;-76
2024/01/02 02:47:46;;;;;;;32.40;28.98;;;12.70;99.90;;;;;;4987220;29;20487;-76
2024/01/02 02:50:17;;;;;;;38.20;34.30;;;12.50;99.90;;;;;;4987286;29;20031;-76
2024/01/02 02:52:48;;;;;;;34.42;31.13;;;12.60;99.90;;;;;;4987396;29;20491;-76
2024/01/02 02:55:19;;;;;;;34.08;30.67;;;12.50;99.90;;;;;;4987359;29;20030;-75
2024/01/02 02:57:50;;;;;;;35.00;31.35;;;12.70;99.90;;;;;;4988044;29;20030;-75
2024/01/02 03:00:21;;;;;;;34.22;30.95;;;12.80;99.90;;;;;;4987682;29;20375;-75
2024/01/02 03:02:52;;;;;;;36.78;33.20;;;12.70;99.90;;;;;;4986590;29;20464;-75
2024/01/02 03:05:23;;;;;;;36.92;33.10;;;12.60;99.90;;;;;;4988037;29;20034;-76
2024/01/02 03:07:54;;;;;;;37.05;33.40;;;12.60;99.90;;;;;;4986820;29;20337;-76
2024/01/02 03:10:25;;;;;;;36.85;33.15;;;12.80;99.90;;;;;;4988324;29;20042;-75
2024/01/02 03:12:57;;;;;;;36.90;33.25;;;12.70;99.90;;;;;;4991339;29;20026;-75
2024/01/02 03:15:28;;;;;;;37.33;33.58;;;12.70;99.90;;;;;;4991319;29;20407;-75
2024/01/02 03:17:59;;;;;;;32.33;29.15;;;12.70;99.90;;;;;;4991142;29;20037;-76
2024/01/02 03:20:30;;;;;;;35.80;32.30;;;12.60;99.90;;;;;;4989956;29;20049;-75
2024/01/02 03:23:01;;;;;;;36.75;33.05;;;12.60;99.90;;;;;;5005965;29;20038;-74
2024/01/02 03:25:33;;;;;;;35.63;32.05;;;12.40;99.90;;;;;;5010393;29;20078;-74
2024/01/02 03:28:04;;;;;;;35.45;31.80;;;12.60;99.90;;;;;;5010045;29;20034;-76
2024/01/02 03:30:37;;;;;;;36.30;32.67;;;12.60;99.90;;;;;;5010054;29;20097;-75
2024/01/02 03:33:08;;;;;;;37.60;33.72;;;12.60;99.90;;;;;;5009504;29;20033;-75
2024/01/02 03:35:38;;;;;;;34.95;31.35;;;12.40;99.90;;;;;;5009692;29;20058;-75
2024/01/02 03:38:09;;;;;;;35.78;32.10;;;12.50;99.90;;;;;;5007633;29;20078;-75
2024/01/02 03:40:40;;;;;;;35.22;31.60;;;12.60;99.90;;;;;;5008460;29;20472;-75
2024/01/02 03:43:11;;;;;;;32.88;29.58;;;12.60;99.90;;;;;;5008908;29;20112;-75
2024/01/02 03:45:42;;;;;;;32.20;28.80;;;12.60;99.90;;;;;;5005718;29;20094;-76
2024/01/02 03:48:13;;;;;;;31.58;28.50;;;12.40;99.90;;;;;;4989039;29;20038;-74
2024/01/02 03:50:44;;;;;;;31.10;28.02;;;12.60;99.90;;;;;;4989474;29;20460;-76
2024/01/02 03:53:15;;;;;;;29.23;26.23;;;12.60;99.90;;;;;;4990505;29;20031;-75
2024/01/02 03:55:46;;;;;;;30.80;27.88;;;12.50;99.90;;;;;;4990678;29;20043;-75
2024/01/02 03:58:17;;;;;;;32.40;29.17;;;12.60;99.90;;;;;;4990005;29;20517;-75
2024/01/02 04:00:49;;;;;;;31.65;28.45;;;12.50;99.90;;;;;;4990463;29;20038;-75
2024/01/02 04:03:20;;;;;;;32.25;28.80;;;12.60;99.90;;;;;;4990606;29;20034;-75
2024/01/02 04:05:52;;;;;;;30.90;27.90;;;12.70;99.90;;;;;;4990498;29;20075;-75
2024/01/02 04:08:23;;;;;;;32.83;29.33;;;12.80;99.90;;;;;;4990176;29;20031;-74
2024/01/02 04:10:54;;;;;;;35.83;32.13;;;12.90;99.90;;;;;;4990491;29;20811;-75
2024/01/02 04:13:25;;;;;;;37.00;33.25;;;12.80;99.90;;;;;;4990468;29;20421;-74
2024/01/02 04:15:56;;;;;;;36.20;32.45;;;12.80;99.90;;;;;;4990312;29;20046;-74
2024/01/02 04:18:27;;;;;;;34.50;31.05;;;12.80;99.90;;;;;;4990484;29;20138;-75
2024/01/02 04:20:58;;;;;;;34.92;31.60;;;12.80;99.90;;;;;;4990225;29;20040;-75
2024/01/02 04:23:29;;;;;;;33.75;30.15;;;12.70;99.90;;;;;;4989523;29;20038;-76
2024/01/02 04:25:59;;;;;;;34.00;30.48;;;12.70;99.90;;;;;;4990284;29;20034;-75
2024/01/02 04:28:30;;;;;;;34.15;30.75;;;12.80;99.90;;;;;;4989784;29;20475;-76
2024/01/02 04:31:01;;;;;;;36.40;32.70;;;12.60;99.90;;;;;;4988629;29;20097;-76
2024/01/02 04:33:32;;;;;;;37.15;33.35;;;12.80;99.90;;;;;;4987714;29;20033;-75
2024/01/02 04:36:03;;;;;;;36.80;33.25;;;12.80;99.90;;;;;;4988844;29;20048;-75
2024/01/02 04:38:35;;;;;;;35.72;32.15;;;12.90;99.90;;;;;;4988661;29;20025;-75
2024/01/02 04:41:06;;;;;;;35.60;31.92;;;12.90;99.90;;;;;;4988478;29;20098;-75
2024/01/02 04:43:38;;;;;;;35.85;32.30;;;12.90;99.90;;;;;;4989005;29;20479;-75
2024/01/02 04:46:10;;;;;;;36.60;32.78;;;12.90;99.90;;;;;;4988700;29;20041;-75
2024/01/02 04:48:41;;;;;;;37.53;33.58;;;12.90;99.90;;;;;;4989378;29;20101;-75
2024/01/02 04:51:11;;;;;;;36.55;32.80;;;12.90;99.90;;;;;;4989192;29;20448;-76
2024/01/02 04:53:42;;;;;;;36.75;33.10;;;13.00;99.90;;;;;;4989291;29;20094;-74
2024/01/02 04:56:13;;;;;;;36.45;32.75;;;12.90;99.90;;;;;;4989921;29;20051;-75
2024/01/02 04:58:44;;;;;;;35.40;31.98;;;13.00;99.90;;;;;;4988563;29;20053;-75
2024/01/02 05:01:15;;;;;;;34.63;31.02;;;13.00;99.90;;;;;;4989966;29;20068;-74
2024/01/02 05:03:46;;;;;;;34.20;30.55;;;13.10;99.90;;;;;;4988750;29;20030;-75
2024/01/02 05:06:17;;;;;;;35.65;32.05;;;13.00;99.90;;;;;;4989614;29;20026;-75
2024/01/02 05:08:49;;;;;;;33.88;30.42;;;12.90;99.90;;;;;;4989442;29;20027;-75
2024/01/02 05:11:19;;;;;;;33.75;30.42;;;13.00;99.90;;;;;;4988158;29;20544;-74
2024/01/02 05:13:50;;;;;;;34.83;31.30;;;13.00;99.90;;;;;;4989436;29;20031;-75
2024/01/02 05:16:21;;;;;;;33.05;29.85;;;13.10;99.90;;;;;;4989057;29;20038;-74
2024/01/02 05:18:52;;;;;;;31.35;28.13;;;13.10;99.90;;;;;;4987595;29;20030;-74
2024/01/02 05:21:23;;;;;;;30.60;27.50;;;13.00;99.90;;;;;;4989046;29;20396;-76
2024/01/02 05:23:54;;;;;;;29.05;26.17;;;12.90;99.90;;;;;;4989193;29;20031;-75
2024/01/02 05:26:25;;;;;;;29.40;26.38;;;13.00;99.90;;;;;;4988659;29;20542;-75
2024/01/02 05:28:56;;;;;;;29.25;26.10;;;13.00;99.90;;;;;;4987127;29;20095;-76
2024/01/02 05:31:26;;;;;;;29.55;26.60;;;12.90;99.90;;;;;;4987977;29;20030;-75
2024/01/02 05:33:57;;;;;;;29.65;26.63;;;12.90;99.90;;;;;;4987911;29;20090;-75
2024/01/02 05:36:28;;;;;;;30.90;27.75;;;13.00;99.90;;;;;;4988104;29;20129;-76
2024/01/02 05:38:59;;;;;;;28.90;25.80;;;13.00;99.90;;;;;;4987868;29;20029;-75
2024/01/02 05:41:30;;;;;;;28.38;25.38;;;13.00;99.90;;;;;;4987749;29;20118;-76
2024/01/02 05:44:01;;;;;;;28.83;25.65;;;13.00;99.90;;;;;;4988455;29;20022;-76
2024/01/02 05:46:32;;;;;;;31.45;28.17;;;13.00;99.90;;;;;;4987533;29;20475;-75
2024/01/02 05:49:03;;;;;;;30.25;27.35;;;12.90;99.90;;;;;;4988869;29;20034;-76
2024/01/02 05:51:34;;;;;;;28.73;25.67;;;13.00;99.90;;;;;;4987501;29;20026;-75
2024/01/02 05:54:05;;;;;;;31.45;28.30;;;12.80;99.90;;;;;;4988357;29;20040;-75
2024/01/02 05:56:36;;;;;;;30.75;27.65;;;12.80;99.90;;;;;;4988892;29;20039;-75
2024/01/02 05:59:07;;;;;;;32.45;28.48;;;13.00;99.90;;;;;;4988635;29;20123;-76
2024/01/02 06:01:38;;;;;;;29.55;26.25;;;13.00;99.90;;;;;;4987240;29;20142;-75
2024/01/02 06:04:09;;;;;;;29.48;26.58;;;12.90;99.90;;;;;;4988815;29;20051;-73
2024/01/02 06:06:39;;;;;;;28.45;25.63;;;12.90;99.90;;;;;;4988722;29;20105;-76
2024/01/02 06:09:10;;;;;;;29.90;26.90;;;12.90;99.90;;;;;;4988753;29;20463;-76
2024/01/02 06:11:41;;;;;;;35.08;29.02;;;12.90;99.90;;;;;;4989141;29;20026;-76
2024/01/02 06:14:12;;;;;;;31.70;27.77;;;13.00;99.90;;;;;;4988954;29;20027;-75
2024/01/02 06:16:43;;;;;;;33.42;29.58;;;12.90;99.90;;;;;;4988959;29;20125;-75
2024/01/02 06:19:18;;;;;;;31.33;28.33;;;13.00;99.90;;;;;;4988638;29;20030;-76
2024/01/02 06:21:48;;;;;;;32.67;29.40;;;13.10;99.90;;;;;;4987963;29;20062;-75
2024/01/02 06:24:19;;;;;;;30.90;27.42;;;13.00;99.90;;;;;;4987955;29;20057;-76
2024/01/02 06:26:50;;;;;;;31.10;28.02;;;13.00;99.90;;;;;;4986189;29;20495;-76
2024/01/02 06:29:21;;;;;;;31.35;27.98;;;13.10;99.90;;;;;;4987366;29;20110;-75
2024/01/02 06:31:52;;;;;;;32.05;28.75;;;13.00;99.90;;;;;;4986058;29;20110;-75
2024/01/02 06:34:23;;;;;;;45.05;39.10;;;13.00;99.90;;;;;;4987199;29;20026;-74
2024/01/02 06:36:54;;;;;;;43.17;38.53;;;13.20;99.90;;;;;;4985855;29;20065;-75
2024/01/02 06:39:25;;;;;;;36.60;32.78;;;13.20;99.90;;;;;;4993350;29;20096;-76
2024/01/02 06:41:56;;;;;;;35.60;30.73;;;13.20;99.90;;;;;;4999235;29;20034;-75
2024/01/02 06:44:27;;;;;;;33.05;29.35;;;13.20;99.90;;;;;;4991017;29;20396;-76
2024/01/02 06:46:58;;;;;;;34.00;30.50;;;13.20;99.90;;;;;;4990877;29;20101;-74
2024/01/02 06:49:29;;;;;;;32.35;28.80;;;13.20;99.90;;;;;;4990190;29;20194;-76
2024/01/02 06:52:00;;;;;;;30.95;27.63;;;13.20;99.90;;;;;;4990311;29;20476;-76
2024/01/02 06:54:31;;;;;;;34.60;30.55;;;13.10;99.90;;;;;;4991189;29;20029;-75
2024/01/02 06:57:02;;;;;;;35.55;31.67;;;13.10;99.90;;;;;;4990569;29;20042;-76
2024/01/02 06:59:33;;;;;;;32.50;28.98;;;13.10;99.90;;;;;;4991189;29;20474;-76
2024/01/02 07:02:04;;;;;;;33.17;29.17;;;13.20;99.90;;;;;;4991268;29;20075;-76
2024/01/02 07:04:37;;;;;;;33.58;30.13;;;13.20;99.90;;;;;;4990759;29;20022;-75
2024/01/02 07:07:09;;;;;;;34.35;30.95;;;13.20;99.90;;;;;;4989483;29;20026;-76
2024/01/02 07:09:40;;;;;;;35.10;31.38;;;13.20;99.90;;;;;;5003211;29;20072;-75
2024/01/02 07:12:11;;;;;;;34.63;30.40;;;13.20;99.90;;;;;;5010443;29;20091;-75
2024/01/02 07:14:43;;;;;;;37.03;31.85;;;13.10;99.90;;;;;;5009024;29;20132;-74
2024/01/02 07:17:19;;;;;;;34.83;31.23;;;13.20;99.90;;;;;;5009592;29;20120;-74
2024/01/02 07:19:51;;;;;;;37.83;32.92;;;13.20;99.90;;;;;;5009598;29;20554;-75
2024/01/02 07:22:22;;;;;;;35.00;30.80;;;13.10;99.90;;;;;;5007381;29;20034;-74
2024/01/02 07:24:53;;;;;;;33.65;30.23;;;13.20;99.90;;;;;;5008024;29;20403;-75
2024/01/02 07:27:24;;;;;;;33.15;29.70;;;13.20;99.90;;;;;;5008984;29;20030;-76
2024/01/02 07:29:56;;;;;;;32.15;28.75;;;13.40;99.90;;;;;;5008478;29;20448;-77
2024/01/02 07:32:26;;;;;;;32.47;28.40;;;13.50;99.90;;;;;;5009284;29;20113;-76
2024/01/02 07:34:57;;;;;;;32.47;29.08;;;13.50;99.90;;;;;;5009410;29;20074;-76
2024/01/02 07:37:28;;;;;;;31.17;28.02;;;13.60;99.90;;;;;;5009691;29;20033;-76
2024/01/02 07:39:59;;;;;;;29.10;26.15;;;13.60;99.90;;;;;;5009145;29;20061;-76
2024/01/02 07:42:31;;;;;;;31.15;27.80;;;13.60;99.90;;;;;;5009376;29;20032;-76
2024/01/02 07:45:02;;;;;;;29.55;26.42;;;13.70;99.90;;;;;;5009481;29;20028;-77
2024/01/02 07:47:34;;;;;;;31.40;28.02;;;13.80;99.90;;;;;;5009835;29;20133;-76
2024/01/02 07:50:06;;;;;;;31.35;28.02;;;13.80;99.90;;;;;;5009785;29;20554;-76
2024/01/02 07:52:37;;;;;;;31.83;28.92;;;13.80;99.90;;;;;;5009437;29;20038;-76
2024/01/02 07:55:11;;;;;;;30.98;27.80;;;13.80;99.90;;;;;;5009153;29;20109;-76
2024/01/02 07:57:42;;;;;;;30.48;27.45;;;13.80;99.90;;;;;;5008111;29;20037;-77
2024/01/02 08:00:13;;;;;;;30.52;27.15;;;13.80;99.90;;;;;;5008104;29;20022;-76
2024/01/02 08:02:44;;;;;;;30.20;27.20;;;13.90;99.90;;;;;;5009284;29;20072;-76
2024/01/02 08:05:15;;;;;;;29.67;26.55;;;13.90;99.90;;;;;;5009186;29;20571;-76
2024/01/02 08:07:46;;;;;;;29.63;26.50;;;13.80;99.90;;;;;;5007681;29;20391;-77
2024/01/02 08:10:17;;;;;;;30.45;27.45;;;13.80;99.90;;;;;;5008774;29;20045;-75
2024/01/02 08:12:51;;;;;;;31.10;26.88;;;13.80;99.90;;;;;;5008943;29;20065;-76
2024/01/02 08:15:22;;;;;;;29.67;25.77;;;13.80;99.90;;;;;;5008008;29;20379;-76
2024/01/02 08:17:53;;;;;;;29.75;26.77;;;13.90;99.90;;;;;;5003160;29;20054;-76
2024/01/02 08:20:24;;;;;;;28.50;25.77;;;13.90;99.90;;;;;;4999681;29;20052;-75
2024/01/02 08:22:55;;;;;;;31.17;28.27;;;14.00;99.90;;;;;;4999353;29;20034;-76
2024/01/02 08:25:26;;;;;;;29.00;25.98;;;13.90;99.90;;;;;;5007796;29;20471;-76
2024/01/02 08:27:57;;;;;;;30.40;27.50;;;13.90;99.90;;;;;;5007760;29;20030;-75
2024/01/02 08:30:27;;;;;;;30.75;27.75;;;14.00;99.90;;;;;;5008037;29;20034;-75
2024/01/02 08:32:59;;;;;;;28.83;25.98;;;13.90;99.90;;;;;;5006987;29;20073;-76
2024/01/02 08:35:29;;;;;;;27.73;25.15;;;14.00;99.90;;;;;;5008505;29;20037;-76
2024/01/02 08:38:00;;;;;;;28.45;25.38;;;14.20;99.90;;;;;;5007030;29;20034;-76
2024/01/02 08:40:31;;;;;;;28.52;25.65;;;14.00;99.90;;;;;;4989455;29;20054;-75
2024/01/02 08:43:02;;;;;;;29.88;26.65;;;14.10;99.90;;;;;;4989864;29;20039;-73
2024/01/02 08:45:34;;;;;;;29.67;26.70;;;14.00;99.90;;;;;;4989799;29;20160;-75
2024/01/02 08:48:05;;;;;;;31.38;27.98;;;14.10;99.90;;;;;;4989576;29;20391;-76
2024/01/02 08:50:36;;;;;;;31.52;28.30;;;14.00;99.90;;;;;;4988144;29;20083;-76
2024/01/02 08:53:07;;;;;;;31.40;27.67;;;14.10;99.90;;;;;;4988112;29;20039;-76
2024/01/02 08:55:38;;;;;;;30.98;27.83;;;14.00;99.90;;;;;;4988210;29;20748;-76
2024/01/02 08:58:10;;;;;;;30.08;26.92;;;14.10;99.90;;;;;;4990993;29;20476;-76
2024/01/02 09:00:40;;;;;;;31.48;28.30;;;14.10;99.90;;;;;;5008153;29;20402;-76
2024/01/02 09:03:11;;;;;;;30.35;27.20;;;14.20;99.90;;;;;;5008306;29;20037;-76
2024/01/02 09:05:42;;;;;;;30.15;27.00;;;14.10;99.90;;;;;;5008169;29;20033;-77
2024/01/02 09:08:14;;;;;;;28.38;25.58;;;14.10;99.90;;;;;;5007105;29;20041;-74
2024/01/02 09:10:45;;;;;;;27.38;24.65;;;14.10;99.90;;;;;;5007524;29;20038;-76
2024/01/02 09:13:16;;;;;;;27.05;24.35;;;14.00;99.90;;;;;;5006893;29;20098;-76
2024/01/02 09:15:47;;;;;;;27.55;24.85;;;13.80;99.90;;;;;;5006917;29;20042;-75
2024/01/02 09:18:18;;;;;;;28.00;25.30;;;13.80;99.90;;;;;;5006851;29;20037;-75
2024/01/02 09:20:49;;;;;;;28.70;25.90;;;13.90;99.90;;;;;;5006509;29;20670;-77
2024/01/02 09:23:20;;;;;;;29.45;26.58;;;13.70;99.90;;;;;;5006634;29;20036;-76
2024/01/02 09:25:58;;;;;;;25.42;22.80;;;13.70;99.90;;;;;;5006462;29;20038;-76
2024/01/02 09:28:30;;;;;;;24.77;21.98;;;13.60;99.90;;;;;;5006555;29;20521;-76
2024/01/02 09:31:02;;;;;;;28.80;25.92;;;13.60;99.90;;;;;;5007418;29;20578;-76
2024/01/02 09:33:33;;;;;;;30.02;27.02;;;13.80;99.90;;;;;;5007688;29;20033;-74
2024/01/02 09:36:18;;;;;;;28.60;26.00;;;13.70;99.90;;;;;;5007562;29;20041;-71
2024/01/02 09:39:00;;;;;;;27.23;24.88;;;13.70;99.90;;;;;;5007424;29;20354;-73
2024/01/02 09:41:37;;;;;;;28.83;26.00;;;13.60;99.90;;;;;;5007597;29;20050;-71
2024/01/02 09:44:42;;;;;;;28.45;25.73;;;13.70;99.90;;;;;;5007517;29;20483;-72
2024/01/02 09:47:32;;;;;;;28.90;26.17;;;13.60;99.90;;;;;;5007569;29;20625;-70
2024/01/02 09:50:34;;;;;;;26.95;24.42;;;13.70;99.90;;;;;;5007931;29;20026;-71
2024/01/02 09:53:38;;;;;;;27.60;25.05;;;13.70;99.90;;;;;;5006096;29;20129;-71
2024/01/02 09:56:58;;;;;;;25.40;23.00;;;13.70;99.90;;;;;;5006384;29;20502;-75
2024/01/02 10:00:02;;;;;;;28.17;25.38;;;13.80;99.90;;;;;;5006163;29;20045;-76
2024/01/02 10:03:02;;;;;;;25.75;23.45;;;13.80;99.90;;;;;;5006862;29;20129;-77
2024/01/02 10:06:03;;;;;;;25.65;23.45;;;13.90;99.90;;;;;;5006287;29;20029;-76
2024/01/02 10:11:33;;;;;;;27.20;24.70;;;14.00;99.90;;;;;;5004434;29;20062;-76
2024/01/02 10:14:18;;;;;;;27.52;24.92;;;13.90;99.90;;;;;;5005985;29;20057;-76
2024/01/02 10:17:07;;;;;;;26.20;23.95;;;13.90;99.90;;;;;;5005870;29;20058;-76
2024/01/02 10:20:06;;;;;;;28.75;26.10;;;13.90;99.90;;;;;;5004301;29;20506;-75
2024/01/02 10:23:01;;;;;;;28.80;26.08;;;13.70;99.90;;;;;;5006175;29;20053;-75
2024/01/02 10:25:33;;;;;;;24.38;21.95;;;13.70;99.90;;;;;;5007105;29;20104;-74
2024/01/02 10:28:13;;;;;;;25.75;23.20;;;13.70;99.90;;;;;;5006963;29;20147;-73
2024/01/02 10:30:59;;;;;;;25.80;23.30;;;13.80;99.90;;;;;;5005978;29;20037;-74
2024/01/02 10:33:38;;;;;;;26.60;23.98;;;13.70;99.90;;;;;;5006922;29;20262;-75
2024/01/02 10:36:11;;;;;;;23.83;21.52;;;13.70;99.90;;;;;;5005516;29;20042;-74
2024/01/02 10:39:08;;;;;;;25.00;22.35;;;13.60;99.90;;;;;;5006902;29;20098;-74
2024/01/02 10:41:54;;;;;;;24.95;22.45;;;13.50;99.90;;;;;;5006592;29;20510;-75
2024/01/02 10:44:36;;;;;;;23.63;21.23;;;13.50;99.90;;;;;;5004383;29;20471;-74
2024/01/02 10:47:17;;;;;;;24.17;21.60;;;13.50;99.90;;;;;;4988139;29;20035;-74
2024/01/02 10:49:55;;;;;;;22.75;20.67;;;13.50;99.90;;;;;;4988240;29;20041;-74
2024/01/02 10:52:38;;;;;;;21.80;19.67;;;13.50;99.90;;;;;;4990349;29;20369;-74
2024/01/02 10:55:23;;;;;;;22.00;19.25;;;13.40;99.90;;;;;;4989109;29;20080;-74
2024/01/02 10:58:19;;;;;;;20.83;18.73;;;13.50;99.90;;;;;;4997346;29;20506;-74
2024/01/02 11:00:55;;;;;;;21.88;19.73;;;13.50;99.90;;;;;;4993746;29;20510;-73
2024/01/02 11:03:30;;;;;;;21.85;19.67;;;13.50;99.90;;;;;;4998728;29;20030;-70
2024/01/02 11:06:08;;;;;;;23.42;21.13;;;13.50;99.90;;;;;;4998175;29;20078;-74
2024/01/02 11:09:04;;;;;;;21.83;19.52;;;13.50;99.90;;;;;;4996309;29;20053;-74
2024/01/02 11:11:40;;;;;;;24.10;21.55;;;13.50;99.90;;;;;;4994899;29;20046;-71
2024/01/02 11:14:15;;;;;;;22.00;19.85;;;13.60;99.90;;;;;;4996878;29;20038;-73
2024/01/02 11:16:48;;;;;;;22.95;20.77;;;13.50;99.90;;;;;;4996034;29;20475;-73
2024/01/02 11:19:31;;;;;;;24.30;19.75;;;13.50;99.90;;;;;;4996991;29;20551;-74
2024/01/02 11:22:15;;;;;;;21.55;19.42;;;13.50;99.90;;;;;;4998433;29;20372;-74
2024/01/02 11:24:56;;;;;;;21.90;19.80;;;13.50;99.90;;;;;;4996655;29;20049;-73
2024/01/02 11:27:28;;;;;;;22.88;20.73;;;13.60;99.90;;;;;;4994987;29;20034;-73
2024/01/02 11:30:02;;;;;;;21.05;19.00;;;13.60;99.90;;;;;;4993596;29;20497;-74
2024/01/02 11:33:16;;;;;;;22.45;20.35;;;13.50;99.90;;;;;;4998845;29;20045;-74
2024/01/02 11:36:10;;;;;;;22.58;20.52;;;13.70;99.90;;;;;;5009678;29;20399;-74
2024/01/02 11:39:15;;;;;;;24.08;21.83;;;13.50;99.90;;;;;;5017617;29;20054;-75
2024/01/02 11:42:21;;;;;;;23.00;20.80;;;13.70;99.90;;;;;;5017709;29;20058;-71
2024/01/02 11:45:10;;;;;;;22.95;20.63;;;13.60;99.90;;;;;;5008362;29;20072;-71
2024/01/02 11:47:46;;;;;;;23.55;21.13;;;13.50;99.90;;;;;;5007561;29;20034;-74
2024/01/02 11:50:17;;;;;;;24.10;20.15;;;13.40;99.90;;;;;;5009704;29;20498;-73
2024/01/02 11:53:09;;;;;;;23.70;21.25;;;13.40;99.90;;;;;;5009650;29;20033;-73
2024/01/02 11:55:51;;;;;;;25.05;21.13;;;13.50;99.90;;;;;;5001399;29;20026;-74
2024/01/02 11:58:27;;;;;;;23.83;19.60;;;13.50;99.90;;;;;;5000444;29;20119;-73
2024/01/02 12:01:41;;;;;;;21.92;19.63;;;13.40;99.90;;;;;;5000250;29;20038;-73
2024/01/02 12:04:24;;;;;;;21.17;19.17;;;13.40;99.90;;;;;;4993988;29;20046;-71
2024/01/02 12:07:10;;;;;;;23.13;20.75;;;13.40;99.90;;;;;;5000963;29;20464;-73
2024/01/02 12:09:44;;;;;;;20.90;18.67;;;13.40;99.90;;;;;;5434290;23;20144;-73
2024/01/02 12:12:53;;;;;;;21.17;19.15;;;13.40;99.90;;;;;;5025074;29;20036;-74
2024/01/02 12:15:45;;;;;;;20.98;18.83;;;13.50;99.90;;;;;;5016632;29;20101;-73
2024/01/02 12:18:18;;;;;;;20.73;18.55;;;13.60;99.90;;;;;;5027868;29;20356;-72
2024/01/02 12:20:56;;;;;;;19.83;18.02;;;13.70;99.90;;;;;;5026903;29;20037;-74
2024/01/02 12:23:28;;;;;;;20.75;18.83;;;13.60;99.90;;;;;;5027942;29;20036;-74
2024/01/02 12:26:04;;;;;;;18.23;16.42;;;13.50;99.90;;;;;;5027930;29;20435;-73
2024/01/02 12:28:39;;;;;;;18.83;16.13;;;13.60;99.90;;;;;;5028112;29;20745;-74
2024/01/02 12:31:35;;;;;;;27.63;24.73;;;13.70;99.90;;;;;;5027910;29;20022;-74
2024/01/02 12:34:12;;;;;;;14.57;13.25;;;13.40;99.90;;;;;;5028022;29;20033;-74
2024/01/02 12:37:04;;;;;;;11.57;9.50;;;13.20;99.90;;;;;;5027724;29;20483;-75
2024/01/02 12:39:42;;;;;;;6.22;5.63;;;12.20;99.90;;;;;;5027486;29;20454;-76
2024/01/02 12:42:20;;;;;;;6.60;6.05;;;11.90;99.90;;;;;;5025131;29;20029;-75
2024/01/02 12:44:53;;;;;;;15.10;13.80;;;11.90;99.90;;;;;;5024338;29;20021;-75
2024/01/02 12:47:29;;;;;;;11.07;7.50;;;11.80;99.90;;;;;;5026745;29;20026;-75
2024/01/02 12:50:05;;;;;;;16.73;13.45;;;11.50;99.90;;;;;;5027302;29;20017;-73
2024/01/02 12:52:47;;;;;;;8.20;7.43;;;11.70;99.90;;;;;;5027058;29;20489;-74
2024/01/02 12:55:20;;;;;;;9.02;8.23;;;11.70;99.90;;;;;;5025610;29;20053;-74
2024/01/02 12:57:53;;;;;;;9.85;8.15;;;11.60;99.90;;;;;;5025952;29;20033;-73
2024/01/02 13:00:24;;;;;;;5.80;5.40;;;11.60;99.90;;;;;;5025959;29;20033;-75
2024/01/02 13:02:55;;;;;;;5.82;5.28;;;11.50;99.90;;;;;;5026911;29;20034;-75
2024/01/02 13:05:28;;;;;;;9.93;9.13;;;11.40;99.90;;;;;;5025937;29;20053;-74
2024/01/02 13:08:00;;;;;;;10.00;8.52;;;11.60;99.90;;;;;;5026419;29;20040;-75